Terminal Aerodrome Forecast
Issued by NWS

Home | Current Version | Previous Version | Text Only | Print | Product List | Glossary On
Versions: 1 2 3 4 5 6 7 8 9 10 11 12 13 14 15 16 17 18 19 20 21 22 23
000
FTUS46 KPDT 200809 AAB
TAFDLS
TAF AMD
KDLS 200809Z 2008/2106 VRB04KT 5SM -RA BR BKN070
     FM201400 32008KT 6SM -RA BR OVC025
     FM202100 30018G28KT P6SM SCT050 BKN100=

USA.gov is the U.S. government's official web portal to all federal, state and local government web resources and services.